createdAt,value
2023-03-27T00:01:57.892Z,1.72
2023-03-27T00:04:26.795Z,1.73
2023-03-27T00:06:55.325Z,1.73
2023-03-27T00:09:23.992Z,1.78
2023-03-27T00:11:53.183Z,1.81
2023-03-27T00:15:04.989Z,1.86
2023-03-27T00:17:38.451Z,1.89
2023-03-27T00:20:15.693Z,1.92
2023-03-27T00:22:49.325Z,1.98
2023-03-27T00:25:26.964Z,2.07
2023-03-27T00:27:59.693Z,2.20
2023-03-27T00:30:31.640Z,2.32
2023-03-27T00:33:00.859Z,2.40
2023-03-27T00:35:31.043Z,2.37
2023-03-27T00:37:59.675Z,2.36
2023-03-27T00:40:33.245Z,2.34
2023-03-27T00:43:01.882Z,2.24
2023-03-27T00:45:38.603Z,2.17
2023-03-27T00:48:10.371Z,2.13
2023-03-27T00:50:43.358Z,2.12
2023-03-27T00:53:19.988Z,2.22
2023-03-27T00:55:53.514Z,2.32
2023-03-27T00:58:34.243Z,2.41
2023-03-27T01:01:03.218Z,2.49
2023-03-27T01:03:34.888Z,2.56
2023-03-27T01:06:04.684Z,2.61
2023-03-27T01:08:38.446Z,2.63
2023-03-27T01:11:57.273Z,2.55
2023-03-27T01:14:53.829Z,2.38
2023-03-27T01:17:37.894Z,2.26
2023-03-27T01:20:34.706Z,2.12
2023-03-27T01:23:35.463Z,2.00
2023-03-27T01:26:35.547Z,1.94
2023-03-27T01:29:14.932Z,1.87
2023-03-27T01:32:15.718Z,1.84
2023-03-27T01:35:10.537Z,1.82
2023-03-27T01:38:01.164Z,1.85
2023-03-27T01:40:33.319Z,1.90
2023-03-27T01:43:12.277Z,1.86
2023-03-27T01:46:12.524Z,1.86
2023-03-27T01:48:57.918Z,1.82
2023-03-27T01:51:40.455Z,1.76
2023-03-27T01:54:28.809Z,1.78
2023-03-27T01:57:08.792Z,1.73
2023-03-27T01:59:42.991Z,1.70
2023-03-27T02:02:22.416Z,1.67
2023-03-27T02:04:57.230Z,1.61
2023-03-27T02:07:33.523Z,1.62
2023-03-27T02:10:08.696Z,1.69
2023-03-27T02:12:57.723Z,1.64
2023-03-27T02:15:33.531Z,1.58
2023-03-27T02:18:25.678Z,1.52
2023-03-27T02:20:54.711Z,1.49
2023-03-27T02:23:23.723Z,1.49
2023-03-27T02:25:55.484Z,1.49
2023-03-27T02:28:52.017Z,1.49
2023-03-27T02:31:50.375Z,1.49
2023-03-27T02:34:39.756Z,1.48
2023-03-27T02:37:17.850Z,1.49
2023-03-27T02:39:59.557Z,1.51
2023-03-27T02:42:43.086Z,1.53
2023-03-27T02:45:28.715Z,1.53
2023-03-27T02:48:27.760Z,1.45
2023-03-27T02:51:10.198Z,1.33
2023-03-27T02:54:05.649Z,1.26
2023-03-27T02:56:41.037Z,1.18
2023-03-27T02:59:18.936Z,1.08
2023-03-27T03:01:49.551Z,1.00
2023-03-27T03:04:26.551Z,0.92
2023-03-27T03:06:56.573Z,0.90
2023-03-27T03:09:26.001Z,0.88
2023-03-27T03:11:55.190Z,0.86
2023-03-27T03:14:37.902Z,0.81
2023-03-27T03:17:06.860Z,0.77
2023-03-27T03:19:38.496Z,0.75
2023-03-27T03:22:07.723Z,0.71
2023-03-27T03:24:44.284Z,0.70
2023-03-27T03:27:16.253Z,0.67
2023-03-27T03:29:44.980Z,0.61
2023-03-27T03:32:14.841Z,0.59
2023-03-27T03:34:46.948Z,0.53
2023-03-27T03:37:18.353Z,0.50
2023-03-27T03:39:47.417Z,0.50
2023-03-27T03:42:22.791Z,0.48
2023-03-27T03:44:54.932Z,0.44
2023-03-27T03:47:26.760Z,0.44
2023-03-27T03:49:58.294Z,0.42
2023-03-27T03:52:32.391Z,0.41
2023-03-27T03:55:01.244Z,0.42
2023-03-27T03:57:33.586Z,0.42
2023-03-27T04:00:10.460Z,0.40
2023-03-27T04:02:41.643Z,0.39
2023-03-27T04:05:12.332Z,0.41
2023-03-27T04:07:42.867Z,0.40
2023-03-27T04:10:15.859Z,0.39
2023-03-27T04:13:26.060Z,0.40
2023-03-27T04:15:55.739Z,0.41
2023-03-27T04:18:33.474Z,0.43
2023-03-27T04:21:05.740Z,0.45
2023-03-27T04:23:42.338Z,0.46
2023-03-27T04:26:12.840Z,0.49
2023-03-27T04:28:42.581Z,0.52
2023-03-27T04:31:14.612Z,0.55
2023-03-27T04:33:47.024Z,0.57
2023-03-27T04:36:24.087Z,0.59
2023-03-27T04:38:52.826Z,0.60
2023-03-27T04:41:22.205Z,0.63
2023-03-27T04:43:50.833Z,0.66
2023-03-27T04:46:20.360Z,0.72
2023-03-27T04:48:54.646Z,0.78
2023-03-27T04:51:23.786Z,0.82
2023-03-27T04:53:53.495Z,0.86
2023-03-27T04:56:23.347Z,0.93
2023-03-27T04:58:54.658Z,0.96
2023-03-27T05:01:23.379Z,1.00
2023-03-27T05:03:54.102Z,1.01
2023-03-27T05:06:23.872Z,1.03
2023-03-27T05:08:53.143Z,1.07
2023-03-27T05:11:22.368Z,1.09
2023-03-27T05:13:56.563Z,1.10
2023-03-27T05:16:27.029Z,1.11
2023-03-27T05:18:56.465Z,1.10
2023-03-27T05:21:39.808Z,1.11
2023-03-27T05:24:09.924Z,1.13
2023-03-27T05:26:43.682Z,1.14
2023-03-27T05:29:14.817Z,1.16
2023-03-27T05:31:44.055Z,1.18
2023-03-27T05:34:12.883Z,1.20
2023-03-27T05:36:47.666Z,1.19
2023-03-27T05:39:17.107Z,1.21
2023-03-27T05:41:54.904Z,1.25
2023-03-27T05:44:26.672Z,1.28
2023-03-27T05:46:55.384Z,1.27
2023-03-27T05:49:28.045Z,1.27
2023-03-27T05:51:56.772Z,1.27
2023-03-27T05:54:26.011Z,1.28
2023-03-27T05:57:00.627Z,1.31
2023-03-27T05:59:34.793Z,1.38
2023-03-27T06:02:05.040Z,1.46
2023-03-27T06:04:34.490Z,1.52
2023-03-27T06:07:05.907Z,1.62
2023-03-27T06:09:38.073Z,1.74
2023-03-27T06:12:26.585Z,1.85
2023-03-27T06:14:55.483Z,1.94
2023-03-27T06:17:27.255Z,2.04
2023-03-27T06:20:11.708Z,2.15
2023-03-27T06:22:46.493Z,2.27
2023-03-27T06:25:17.152Z,2.46
2023-03-27T06:27:50.432Z,2.75
2023-03-27T06:30:25.583Z,3.02
2023-03-27T06:33:01.534Z,3.17
2023-03-27T06:35:37.102Z,3.28
2023-03-27T06:38:09.410Z,3.39
2023-03-27T06:40:45.355Z,3.51
2023-03-27T06:43:18.433Z,3.64
2023-03-27T06:45:52.241Z,3.73
2023-03-27T06:48:26.782Z,3.76
2023-03-27T06:50:55.954Z,3.80
2023-03-27T06:53:28.956Z,3.87
2023-03-27T06:55:59.891Z,3.92
2023-03-27T06:58:28.826Z,3.82
2023-03-27T07:00:57.661Z,3.76
2023-03-27T07:03:28.719Z,3.70
2023-03-27T07:05:57.540Z,3.71
2023-03-27T07:08:29.723Z,3.64
2023-03-27T07:11:11.494Z,3.53
2023-03-27T07:13:41.686Z,3.21
2023-03-27T07:16:14.506Z,3.17
2023-03-27T07:18:43.268Z,3.29
2023-03-27T07:21:15.536Z,3.53
2023-03-27T07:23:44.084Z,4.13
2023-03-27T07:26:13.446Z,5.45
2023-03-27T07:28:42.576Z,6.81
2023-03-27T07:31:31.496Z,7.81
2023-03-27T07:34:02.219Z,8.39
2023-03-27T07:36:32.541Z,8.46
2023-03-27T07:39:01.719Z,8.20
2023-03-27T07:41:30.700Z,8.00
2023-03-27T07:44:03.354Z,7.83
2023-03-27T07:46:34.101Z,8.60
2023-03-27T07:49:03.125Z,9.07
2023-03-27T07:51:32.719Z,8.55
2023-03-27T07:54:04.862Z,7.89
2023-03-27T07:56:34.593Z,7.58
2023-03-27T07:59:06.289Z,7.78
2023-03-27T08:01:35.998Z,8.39
2023-03-27T08:04:06.032Z,8.11
2023-03-27T08:06:35.423Z,7.24
2023-03-27T08:09:06.984Z,6.57
2023-03-27T08:11:56.862Z,6.22
2023-03-27T08:14:55.444Z,6.18
2023-03-27T08:17:37.593Z,5.99
2023-03-27T08:20:09.645Z,5.92
2023-03-27T08:22:39.139Z,5.69
2023-03-27T08:25:12.992Z,5.35
2023-03-27T08:27:47.828Z,5.16
2023-03-27T08:30:17.897Z,5.16
2023-03-27T08:32:48.417Z,5.09
2023-03-27T08:35:17.424Z,5.04
2023-03-27T08:37:49.419Z,5.00
2023-03-27T08:40:28.685Z,4.87
2023-03-27T08:43:03.027Z,4.71
2023-03-27T08:45:50.282Z,5.06
2023-03-27T08:48:34.606Z,5.60
2023-03-27T08:51:16.651Z,6.78
2023-03-27T08:53:53.982Z,8.33
2023-03-27T08:56:26.393Z,10.10
2023-03-27T08:58:55.228Z,12.06
2023-03-27T09:01:35.778Z,13.28
2023-03-27T09:04:18.163Z,13.55
2023-03-27T09:07:03.505Z,12.60
2023-03-27T09:09:53.012Z,11.84
2023-03-27T09:12:41.363Z,11.42
2023-03-27T09:15:17.810Z,10.97
2023-03-27T09:17:51.965Z,10.43
2023-03-27T09:20:32.664Z,9.99
2023-03-27T09:23:12.586Z,9.06
2023-03-27T09:25:46.982Z,9.27
2023-03-27T09:28:51.830Z,10.32
2023-03-27T09:31:44.985Z,12.38
2023-03-27T09:34:24.748Z,11.99
2023-03-27T09:36:54.760Z,11.58
2023-03-27T09:39:30.284Z,11.91
2023-03-27T09:42:07.227Z,12.01
2023-03-27T09:44:41.621Z,11.93
2023-03-27T09:47:25.345Z,11.83
2023-03-27T09:50:00.526Z,12.14
2023-03-27T09:52:36.050Z,12.04
2023-03-27T09:55:24.383Z,11.52
2023-03-27T09:57:59.051Z,10.63
2023-03-27T10:00:33.958Z,10.63
2023-03-27T10:03:08.450Z,11.74
2023-03-27T10:05:37.430Z,12.70
2023-03-27T10:08:44.986Z,11.75
2023-03-27T10:11:21.225Z,10.66
2023-03-27T10:14:01.843Z,10.12
2023-03-27T10:16:39.378Z,10.57
2023-03-27T10:19:24.609Z,10.34
2023-03-27T10:21:56.835Z,9.79
2023-03-27T10:24:36.593Z,9.36
2023-03-27T10:27:28.113Z,8.44
2023-03-27T10:29:57.962Z,8.39
2023-03-27T10:32:48.141Z,8.09
2023-03-27T10:35:44.616Z,7.43
2023-03-27T10:38:16.432Z,6.87
2023-03-27T10:40:51.014Z,6.70
2023-03-27T10:43:43.198Z,6.43
2023-03-27T10:46:27.701Z,6.37
2023-03-27T10:49:32.443Z,6.28
2023-03-27T10:52:10.058Z,6.30
2023-03-27T10:55:14.565Z,6.53
2023-03-27T10:57:49.384Z,6.73
2023-03-27T11:00:33.130Z,6.97
2023-03-27T11:03:18.281Z,7.13
2023-03-27T11:05:49.002Z,7.26
2023-03-27T11:08:37.044Z,8.76
2023-03-27T11:11:16.666Z,10.62
2023-03-27T11:13:48.202Z,12.18
2023-03-27T11:16:29.874Z,14.07
2023-03-27T11:19:03.733Z,15.13
2023-03-27T11:21:42.505Z,14.25
2023-03-27T11:24:32.693Z,14.00
2023-03-27T11:27:21.362Z,12.61
2023-03-27T11:29:50.164Z,11.19
2023-03-27T11:32:37.251Z,12.14
2023-03-27T11:35:15.345Z,14.58
2023-03-27T11:38:03.068Z,14.51
2023-03-27T11:40:37.162Z,12.94
2023-03-27T11:43:07.116Z,11.82
2023-03-27T11:46:08.432Z,11.15
2023-03-27T11:49:06.656Z,10.59
2023-03-27T11:51:42.080Z,9.52
2023-03-27T11:54:46.129Z,8.70
2023-03-27T11:57:26.631Z,8.08
2023-03-27T12:00:06.658Z,7.86
2023-03-27T12:03:07.154Z,7.80
2023-03-27T12:06:30.954Z,7.45
2023-03-27T12:09:41.712Z,7.16
2023-03-27T12:12:13.802Z,7.23
2023-03-27T12:14:56.312Z,7.06
2023-03-27T12:17:34.357Z,6.62
2023-03-27T12:20:41.632Z,6.55
2023-03-27T12:23:31.145Z,6.66
2023-03-27T12:26:18.603Z,6.87
2023-03-27T12:29:40.115Z,6.83
2023-03-27T12:32:46.072Z,6.78
2023-03-27T12:35:21.589Z,6.69
2023-03-27T12:38:04.475Z,6.68
2023-03-27T12:40:40.344Z,6.91
2023-03-27T12:43:41.670Z,7.47
2023-03-27T12:46:21.848Z,8.53
2023-03-27T12:48:53.336Z,8.96
2023-03-27T12:51:47.842Z,9.04
2023-03-27T12:54:16.177Z,8.13
2023-03-27T12:56:51.661Z,6.94
2023-03-27T12:59:24.371Z,6.40
2023-03-27T13:02:23.589Z,6.05
2023-03-27T13:05:24.188Z,5.53
2023-03-27T13:08:29.599Z,5.38
2023-03-27T13:11:15.038Z,5.37
2023-03-27T13:14:05.763Z,5.54
2023-03-27T13:16:54.537Z,5.63
2023-03-27T13:19:47.603Z,5.74
2023-03-27T13:22:37.147Z,5.90
2023-03-27T13:26:09.589Z,6.00
2023-03-27T13:28:43.011Z,6.09
2023-03-27T13:31:15.108Z,6.05
2023-03-27T13:33:45.436Z,6.06
2023-03-27T13:36:24.983Z,6.25
2023-03-27T13:39:25.110Z,6.48
2023-03-27T13:42:02.494Z,6.30
2023-03-27T13:44:44.036Z,6.08
2023-03-27T13:47:50.925Z,5.57
2023-03-27T13:50:48.686Z,5.23
2023-03-27T13:53:38.112Z,5.16
2023-03-27T13:56:12.717Z,5.08
2023-03-27T13:59:06.506Z,5.05
2023-03-27T14:02:11.316Z,4.83
2023-03-27T14:04:59.345Z,4.54
2023-03-27T14:07:54.326Z,4.71
2023-03-27T14:10:32.878Z,4.96
2023-03-27T14:13:26.981Z,5.28
2023-03-27T14:16:06.839Z,5.48
2023-03-27T14:18:57.188Z,5.45
2023-03-27T14:21:38.558Z,5.39
2023-03-27T14:24:24.588Z,5.61
2023-03-27T14:26:55.487Z,5.97
2023-03-27T14:29:24.559Z,6.20
2023-03-27T14:31:53.864Z,6.37
2023-03-27T14:34:35.342Z,6.46
2023-03-27T14:37:42.347Z,6.60
2023-03-27T14:40:27.558Z,6.49
2023-03-27T14:42:59.512Z,6.12
2023-03-27T14:45:33.450Z,6.04
2023-03-27T14:48:36.190Z,5.90
2023-03-27T14:51:11.059Z,5.79
2023-03-27T14:53:44.846Z,5.71
2023-03-27T14:56:51.024Z,5.74
2023-03-27T14:59:23.343Z,5.83
2023-03-27T15:01:55.306Z,5.92
2023-03-27T15:04:27.361Z,5.55
2023-03-27T15:07:28.987Z,5.27
2023-03-27T15:10:12.894Z,5.24
2023-03-27T15:12:49.033Z,5.13
2023-03-27T15:15:39.359Z,5.11
2023-03-27T15:18:22.977Z,4.86
2023-03-27T15:20:54.346Z,4.58
2023-03-27T15:23:37.714Z,4.41
2023-03-27T15:26:36.470Z,4.47
2023-03-27T15:29:32.649Z,4.61
2023-03-27T15:32:09.209Z,4.66
2023-03-27T15:34:50.315Z,4.71
2023-03-27T15:37:25.625Z,4.81
2023-03-27T15:40:28.636Z,4.90
2023-03-27T15:43:19.566Z,5.06
2023-03-27T15:46:18.766Z,5.10
2023-03-27T15:48:55.634Z,5.12
2023-03-27T15:51:29.758Z,5.12
2023-03-27T15:54:02.107Z,5.00
2023-03-27T15:56:48.151Z,4.72
2023-03-27T15:59:17.617Z,4.57
2023-03-27T16:02:03.846Z,4.39
2023-03-27T16:04:51.994Z,4.21
2023-03-27T16:07:23.821Z,4.13
2023-03-27T16:10:00.081Z,4.05
2023-03-27T16:12:59.418Z,4.03
2023-03-27T16:15:45.402Z,3.85
2023-03-27T16:18:19.195Z,3.74
2023-03-27T16:20:52.963Z,3.61
2023-03-27T16:23:23.703Z,3.50
2023-03-27T16:25:52.362Z,3.44
2023-03-27T16:28:22.098Z,3.40
2023-03-27T16:30:56.002Z,3.33
2023-03-27T16:33:30.530Z,3.27
2023-03-27T16:35:59.521Z,3.24
2023-03-27T16:38:29.155Z,3.18
2023-03-27T16:40:58.073Z,3.10
2023-03-27T16:43:26.976Z,3.06
2023-03-27T16:45:57.821Z,3.00
2023-03-27T16:48:28.190Z,2.96
2023-03-27T16:50:59.030Z,2.89
2023-03-27T16:53:28.022Z,2.79
2023-03-27T16:56:00.539Z,2.70
2023-03-27T16:58:30.455Z,2.58
2023-03-27T17:01:00.307Z,2.51
2023-03-27T17:03:29.589Z,2.42
2023-03-27T17:06:01.748Z,2.31
2023-03-27T17:08:32.726Z,2.20
2023-03-27T17:11:17.921Z,2.13
2023-03-27T17:13:47.431Z,2.02
2023-03-27T17:16:17.238Z,1.91
2023-03-27T17:18:47.531Z,1.84
2023-03-27T17:21:17.270Z,1.76
2023-03-27T17:23:49.860Z,1.69
2023-03-27T17:26:31.874Z,1.60
2023-03-27T17:29:01.480Z,1.52
2023-03-27T17:31:36.658Z,1.44
2023-03-27T17:34:10.635Z,1.34
2023-03-27T17:36:47.254Z,1.27
2023-03-27T17:39:20.776Z,1.18
2023-03-27T17:41:51.378Z,1.10
2023-03-27T17:44:21.927Z,1.02
2023-03-27T17:46:56.341Z,0.94
2023-03-27T17:49:26.107Z,0.86
2023-03-27T17:51:56.418Z,0.79
2023-03-27T17:54:28.480Z,0.72
2023-03-27T17:56:57.998Z,0.66
2023-03-27T17:59:38.864Z,0.59
2023-03-27T18:02:08.807Z,0.52
2023-03-27T18:04:41.558Z,0.47
2023-03-27T18:07:11.210Z,0.39
2023-03-27T18:09:42.407Z,0.30
2023-03-27T18:12:15.532Z,0.21
2023-03-27T18:14:46.445Z,0.11
2023-03-27T18:17:22.377Z,-0.01
2023-03-27T18:19:55.231Z,-0.15
2023-03-27T18:22:29.204Z,-0.30
2023-03-27T18:25:03.220Z,-0.46
2023-03-27T18:27:41.053Z,-0.60
2023-03-27T18:30:29.388Z,-0.75
2023-03-27T18:33:04.167Z,-0.89
2023-03-27T18:35:46.538Z,-1.03
2023-03-27T18:42:30.073Z,-1.30
2023-03-27T18:46:23.049Z,-1.48
2023-03-27T18:49:49.234Z,-1.70
2023-03-27T18:53:19.818Z,-1.85
2023-03-27T18:56:21.725Z,-1.97
2023-03-27T18:59:43.120Z,-2.04
2023-03-27T19:03:18.930Z,-2.10
2023-03-27T19:09:41.867Z,-2.22
2023-03-27T19:16:14.291Z,-2.37
2023-03-27T19:29:42.064Z,-2.69
2023-03-27T19:33:12.130Z,-2.79
2023-03-27T19:36:41.342Z,-2.90
2023-03-27T19:43:51.642Z,-3.09
2023-03-27T19:46:26.718Z,-3.17
2023-03-27T19:50:04.071Z,-3.23
2023-03-27T19:53:43.470Z,-3.25
2023-03-27T19:56:17.120Z,-3.22
2023-03-27T19:58:48.482Z,-3.21
2023-03-27T20:02:21.419Z,-3.21
2023-03-27T20:05:31.822Z,-3.21
2023-03-27T20:08:57.894Z,-3.24
2023-03-27T20:11:32.835Z,-3.26
2023-03-27T20:14:28.188Z,-3.29
2023-03-27T20:16:59.433Z,-3.31
2023-03-27T20:19:35.721Z,-3.34
2023-03-27T20:22:18.463Z,-3.39
2023-03-27T20:24:57.281Z,-3.43
2023-03-27T20:27:46.444Z,-3.47
2023-03-27T20:30:15.443Z,-3.51
2023-03-27T20:33:04.559Z,-3.57
2023-03-27T20:36:29.524Z,-3.68
2023-03-27T20:43:07.133Z,-3.85
2023-03-27T20:46:11.802Z,-3.89
2023-03-27T20:49:41.131Z,-3.93
2023-03-27T20:52:42.872Z,-3.98
2023-03-27T20:56:08.606Z,-3.98
2023-03-27T20:59:11.173Z,-3.98
2023-03-27T21:06:56.633Z,-4.00
2023-03-27T21:10:35.729Z,-4.05
2023-03-27T21:14:08.090Z,-4.11
2023-03-27T21:16:50.255Z,-4.15
2023-03-27T21:20:38.271Z,-4.21
2023-03-27T21:24:00.315Z,-4.28
2023-03-27T21:27:41.068Z,-4.31
2023-03-27T21:31:12.412Z,-4.35
2023-03-27T21:34:53.215Z,-4.39
2023-03-27T21:38:49.188Z,-4.44
2023-03-27T21:46:02.451Z,-4.41
2023-03-27T21:49:48.089Z,-4.28
2023-03-27T21:53:28.133Z,-4.04
2023-03-27T21:56:29.994Z,-3.81
2023-03-27T21:58:58.869Z,-3.61
2023-03-27T22:01:28.753Z,-3.45
2023-03-27T22:04:03.241Z,-3.34
2023-03-27T22:06:38.545Z,-3.25
2023-03-27T22:09:13.844Z,-3.16
2023-03-27T22:11:45.683Z,-3.06
2023-03-27T22:14:44.713Z,-2.98
2023-03-27T22:17:15.073Z,-2.89
2023-03-27T22:20:07.986Z,-2.78
2023-03-27T22:22:46.135Z,-2.68
2023-03-27T22:25:25.948Z,-2.58
2023-03-27T22:28:21.818Z,-2.50
2023-03-27T22:30:51.984Z,-2.43
2023-03-27T22:33:21.448Z,-2.39
2023-03-27T22:35:52.494Z,-2.36
2023-03-27T22:38:21.242Z,-2.33
2023-03-27T22:40:49.901Z,-2.30
2023-03-27T22:43:22.612Z,-2.25
2023-03-27T22:45:52.815Z,-2.22
2023-03-27T22:48:22.176Z,-2.19
2023-03-27T22:51:00.254Z,-2.17
2023-03-27T22:53:29.865Z,-2.16
2023-03-27T22:55:59.981Z,-2.18
2023-03-27T22:58:32.943Z,-2.19
2023-03-27T23:01:02.603Z,-2.16
2023-03-27T23:03:38.147Z,-2.14
2023-03-27T23:06:16.508Z,-2.12
2023-03-27T23:08:45.279Z,-2.10
2023-03-27T23:11:17.217Z,-2.09
2023-03-27T23:13:47.571Z,-2.08
2023-03-27T23:16:17.318Z,-2.07
2023-03-27T23:18:47.069Z,-2.09
2023-03-27T23:21:18.190Z,-2.09
2023-03-27T23:23:59.880Z,-2.09
2023-03-27T23:26:32.493Z,-2.04
2023-03-27T23:29:01.867Z,-1.96
2023-03-27T23:31:32.022Z,-1.86
2023-03-27T23:34:03.457Z,-1.77
2023-03-27T23:36:32.612Z,-1.70
2023-03-27T23:39:06.841Z,-1.62
2023-03-27T23:41:36.541Z,-1.55
2023-03-27T23:44:10.760Z,-1.48
2023-03-27T23:50:24.830Z,-1.37
2023-03-27T23:53:58.480Z,-1.32
2023-03-27T23:56:53.658Z,-1.23
2023-03-27T23:59:22.784Z,-1.16
